Time;durP1;ratioP1;P1;durP2;ratioP2;P2;SDS_P1;SDS_P2;PMS_P1;PMS_P2;Temp;Humidity;BMP_temperature;BMP_pressure;BME280_temperature;BME280_humidity;BME280_pressure;Samples;Min_cycle;Max_cycle;Signal;HPM_P1;HPM_P2
2021/07/27 00:01:12;;;;;;;7.20;3.72;;;;;;;16.09;100.00;100044.06;5077535;28;20388;-84
2021/07/27 00:03:38;;;;;;;8.07;4.13;;;;;;;16.12;100.00;100043.91;5078494;28;20145;-84
2021/07/27 00:06:07;;;;;;;7.80;3.67;;;;;;;16.16;100.00;100034.97;5077629;28;20489;-84
2021/07/27 00:08:36;;;;;;;13.55;3.92;;;;;;;16.16;100.00;100034.97;5077571;28;20057;-84
2021/07/27 00:11:03;;;;;;;9.18;3.83;;;;;;;16.11;100.00;100029.97;5077791;28;20473;-84
2021/07/27 00:13:28;;;;;;;10.60;3.95;;;;;;;16.09;100.00;100030.97;5077530;28;20507;-84
2021/07/27 00:15:54;;;;;;;10.75;3.80;;;;;;;16.13;100.00;100021.19;5077399;28;20028;-83
2021/07/27 00:18:19;;;;;;;6.88;4.03;;;;;;;16.20;100.00;100025.22;5077532;28;20400;-84
2021/07/27 00:20:45;;;;;;;9.82;4.40;;;;;;;16.33;100.00;100021.06;5077287;28;20038;-84
2021/07/27 00:23:10;;;;;;;6.47;3.45;;;;;;;16.35;100.00;100027.06;5077370;28;20024;-84
2021/07/27 00:25:38;;;;;;;9.43;4.10;;;;;;;16.31;100.00;100034.19;5076638;28;20015;-84
2021/07/27 00:28:03;;;;;;;13.63;3.75;;;;;;;16.29;100.00;100038.69;5095346;28;20020;-84
2021/07/27 00:30:28;;;;;;;9.20;4.10;;;;;;;16.46;100.00;100031.75;5095216;28;20063;-84
2021/07/27 00:32:54;;;;;;;8.52;4.22;;;;;;;16.57;100.00;100026.81;5077209;28;20055;-84
2021/07/27 00:35:19;;;;;;;12.05;4.10;;;;;;;16.48;100.00;100015.03;5077035;28;20078;-84
2021/07/27 00:37:47;;;;;;;8.68;4.07;;;;;;;16.50;100.00;100028.91;5095069;28;20034;-84
2021/07/27 00:40:14;;;;;;;8.27;3.95;;;;;;;16.42;100.00;100023.22;5076914;28;20027;-84
2021/07/27 00:43:05;;;;;;;10.07;3.78;;;;;;;16.42;100.00;100014.50;5076988;28;20024;-84
2021/07/27 00:45:31;;;;;;;8.23;3.97;;;;;;;16.45;100.00;100020.44;5077291;28;20020;-84
2021/07/27 00:47:56;;;;;;;8.57;4.43;;;;;;;16.53;100.00;100027.88;5076876;28;20047;-84
2021/07/27 00:50:23;;;;;;;8.55;4.85;;;;;;;16.70;100.00;100020.00;5076842;28;20515;-84
2021/07/27 00:52:48;;;;;;;8.30;4.70;;;;;;;16.67;100.00;100014.94;5095084;28;20062;-84
2021/07/27 00:55:13;;;;;;;7.97;5.15;;;;;;;16.61;100.00;100014.41;5094765;28;20016;-84
2021/07/27 00:57:39;;;;;;;8.05;5.18;;;;;;;16.66;100.00;100008.00;5094666;28;20020;-84
2021/07/27 01:00:05;;;;;;;10.35;5.90;;;;;;;16.63;100.00;100005.56;5076493;28;20103;-84
2021/07/27 01:02:30;;;;;;;8.25;5.18;;;;;;;16.65;100.00;100008.06;5094108;28;20035;-84
2021/07/27 01:04:56;;;;;;;8.02;5.45;;;;;;;16.63;100.00;100010.78;5094882;28;20048;-84
2021/07/27 01:07:23;;;;;;;8.38;5.20;;;;;;;16.62;100.00;100006.47;5076286;28;20030;-84
2021/07/27 01:09:49;;;;;;;10.60;6.20;;;;;;;16.65;100.00;100006.28;5076496;28;20024;-84
2021/07/27 01:12:14;;;;;;;8.55;5.93;;;;;;;16.61;100.00;100007.41;5076340;28;20038;-84
2021/07/27 01:14:39;;;;;;;8.73;5.47;;;;;;;16.65;100.00;100005.47;5076175;28;20028;-84
2021/07/27 01:17:04;;;;;;;10.02;6.38;;;;;;;16.63;100.00;100007.31;5094274;28;20035;-84
2021/07/27 01:19:49;;;;;;;9.32;6.00;;;;;;;16.56;100.00;100006.78;5076214;28;20031;-84
2021/07/27 01:43:46;;;;;;;12.55;7.20;;;;;;;16.36;100.00;100005.19;5093859;28;20389;-84
2021/07/27 01:46:12;;;;;;;8.60;6.85;;;;;;;16.33;100.00;100003.56;5093724;28;20028;-84
2021/07/27 01:48:38;;;;;;;9.25;6.57;;;;;;;16.37;100.00;100016.50;5093762;28;20020;-84
2021/07/27 01:51:20;;;;;;;12.57;7.32;;;;;;;16.34;100.00;100025.34;5075683;28;20016;-84
2021/07/27 01:53:53;;;;;;;11.90;7.15;;;;;;;16.43;100.00;100029.28;5075699;28;20503;-84
2021/07/27 01:56:21;;;;;;;11.63;7.10;;;;;;;16.58;100.00;100025.88;5076077;28;20028;-84
2021/07/27 01:58:47;;;;;;;15.95;7.57;;;;;;;16.66;100.00;100023.72;5075551;28;20127;-84
2021/07/27 02:01:13;;;;;;;11.90;7.40;;;;;;;16.78;100.00;100028.34;5075486;28;20024;-84
2021/07/27 02:03:38;;;;;;;13.43;7.57;;;;;;;16.67;100.00;100032.41;5092435;28;20026;-84
2021/07/27 02:06:03;;;;;;;12.70;7.25;;;;;;;16.60;100.00;100029.28;5075367;28;20050;-84
2021/07/27 02:08:29;;;;;;;11.23;6.90;;;;;;;16.56;100.00;100039.06;5076312;28;20039;-84
2021/07/27 02:11:03;;;;;;;11.57;7.25;;;;;;;16.62;100.00;100037.88;5093565;28;20016;-84
2021/07/27 02:13:30;;;;;;;13.45;6.78;;;;;;;16.56;100.00;100041.69;5075428;28;20028;-84
2021/07/27 02:15:56;;;;;;;10.13;6.70;;;;;;;16.58;100.00;100038.97;5075238;28;20119;-84
2021/07/27 02:18:22;;;;;;;11.07;6.90;;;;;;;16.62;100.00;100040.50;5075434;28;20028;-84
2021/07/27 02:20:47;;;;;;;10.18;6.45;;;;;;;16.56;100.00;100043.44;5075139;28;20021;-84
2021/07/27 02:23:12;;;;;;;9.67;6.77;;;;;;;16.55;100.00;100044.38;5075383;28;20038;-84
2021/07/27 02:25:38;;;;;;;12.15;6.95;;;;;;;16.55;100.00;100039.13;5093574;28;20035;-84
2021/07/27 02:28:03;;;;;;;10.40;6.75;;;;;;;16.50;100.00;100041.13;5093321;28;20107;-84
2021/07/27 02:30:37;;;;;;;11.15;6.57;;;;;;;16.53;100.00;100054.94;5075310;28;20020;-84
2021/07/27 02:33:02;;;;;;;12.45;6.88;;;;;;;16.52;100.00;100050.59;5093391;28;20024;-84
2021/07/27 02:35:33;;;;;;;11.23;6.45;;;;;;;16.47;100.00;100043.91;5075245;28;20030;-84
2021/07/27 02:37:58;;;;;;;8.82;6.53;;;;;;;16.37;100.00;100051.38;5092131;28;20024;-84
2021/07/27 02:40:24;;;;;;;10.20;6.68;;;;;;;16.36;100.00;100051.47;5093206;28;20034;-84
2021/07/27 02:42:49;;;;;;;9.15;6.30;;;;;;;16.32;100.00;100046.38;5093115;28;20036;-84
2021/07/27 02:45:21;;;;;;;12.75;6.35;;;;;;;16.27;100.00;100047.53;5093366;28;20027;-84
2021/07/27 02:47:46;;;;;;;8.63;6.40;;;;;;;16.26;100.00;100048.47;5093014;28;20016;-84
2021/07/27 02:50:12;;;;;;;14.90;7.18;;;;;;;16.28;100.00;100047.44;5078481;28;20027;-84
2021/07/27 02:52:39;;;;;;;9.10;7.45;;;;;;;16.29;100.00;100045.69;5079015;28;20020;-84
2021/07/27 02:55:05;;;;;;;9.98;6.38;;;;;;;16.26;100.00;100051.94;5097086;28;20020;-84
2021/07/27 02:57:30;;;;;;;11.20;6.70;;;;;;;16.26;100.00;100051.09;5078796;28;20024;-84
2021/07/27 02:59:57;;;;;;;10.68;7.00;;;;;;;16.28;100.00;100051.84;5078828;28;20024;-84
2021/07/27 03:02:22;;;;;;;9.93;7.03;;;;;;;16.24;100.00;100053.75;5097173;28;20031;-84
2021/07/27 03:04:47;;;;;;;13.67;7.17;;;;;;;16.26;100.00;100051.94;5078916;28;20028;-84
2021/07/27 03:07:19;;;;;;;10.70;7.40;;;;;;;16.22;100.00;100054.75;5096833;28;20116;-84
2021/07/27 03:12:28;;;;;;;11.45;7.38;;;;;;;16.28;100.00;100059.69;5097160;28;20161;-84
2021/07/27 03:15:03;;;;;;;10.55;7.15;;;;;;;16.26;100.00;100049.31;5078573;28;20114;-84
2021/07/27 03:17:28;;;;;;;11.57;7.63;;;;;;;16.25;100.00;100054.59;5078463;28;20127;-84
2021/07/27 03:19:53;;;;;;;11.32;8.18;;;;;;;16.26;100.00;100051.09;5078516;28;20095;-84
2021/07/27 03:22:22;;;;;;;12.68;8.48;;;;;;;16.27;100.00;100044.91;5078526;28;20020;-84
2021/07/27 03:24:48;;;;;;;10.00;7.80;;;;;;;16.23;100.00;100044.22;5096579;28;20031;-84
2021/07/27 03:27:13;;;;;;;12.50;8.15;;;;;;;16.22;100.00;100045.13;5096444;28;20020;-84
2021/07/27 03:29:38;;;;;;;14.35;8.63;;;;;;;16.17;100.00;100049.78;5096452;28;20055;-85
2021/07/27 03:32:04;;;;;;;13.00;7.97;;;;;;;16.17;100.00;100055.00;5078264;28;20077;-84
2021/07/27 03:34:29;;;;;;;14.68;8.38;;;;;;;16.18;100.00;100046.22;5078839;28;20535;-84
2021/07/27 03:36:54;;;;;;;14.80;8.20;;;;;;;16.18;100.00;100048.00;5078083;28;20027;-84
2021/07/27 03:39:19;;;;;;;11.82;8.63;;;;;;;16.15;100.00;100050.75;5078212;28;20118;-84
2021/07/27 03:41:45;;;;;;;14.18;8.32;;;;;;;16.19;100.00;100050.50;5078077;28;20488;-84
2021/07/27 03:44:10;;;;;;;13.25;8.32;;;;;;;16.22;100.00;100052.97;5096085;28;20027;-84
2021/07/27 03:46:35;;;;;;;14.68;8.38;;;;;;;16.24;100.00;100048.53;5096101;28;20046;-85
2021/07/27 03:49:01;;;;;;;15.30;9.02;;;;;;;16.24;100.00;100058.16;5078007;28;20032;-85
2021/07/27 03:51:26;;;;;;;12.18;8.55;;;;;;;16.22;100.00;100050.38;5077889;28;20024;-85
2021/07/27 03:53:51;;;;;;;10.52;8.15;;;;;;;16.18;100.00;100058.47;5077804;28;20035;-84
2021/07/27 03:56:16;;;;;;;11.40;8.10;;;;;;;16.17;100.00;100062.84;5077851;28;20032;-84
2021/07/27 03:58:45;;;;;;;10.95;8.20;;;;;;;16.25;100.00;100059.84;5077801;28;20027;-84
2021/07/27 04:01:10;;;;;;;12.55;7.88;;;;;;;16.34;100.00;100062.00;5076689;28;20024;-84
2021/07/27 04:03:36;;;;;;;12.40;8.40;;;;;;;16.37;100.00;100064.47;5078095;28;20027;-84
2021/07/27 04:06:01;;;;;;;10.27;7.47;;;;;;;16.34;100.00;100070.69;5096390;28;20093;-84
2021/07/27 04:08:26;;;;;;;12.38;7.35;;;;;;;16.39;100.00;100069.63;5095890;28;20020;-85
2021/07/27 04:10:51;;;;;;;9.82;7.35;;;;;;;16.41;100.00;100063.41;5077584;28;20023;-85
2021/07/27 04:13:17;;;;;;;10.63;7.25;;;;;;;16.36;100.00;100068.00;5077541;28;20024;-85
2021/07/27 04:15:42;;;;;;;10.90;7.18;;;;;;;16.41;100.00;100067.75;5077359;28;20027;-84
2021/07/27 04:18:08;;;;;;;10.95;7.03;;;;;;;16.38;100.00;100073.16;5077681;28;20373;-84
2021/07/27 04:20:33;;;;;;;10.60;7.10;;;;;;;16.37;100.00;100068.84;5094137;28;20024;-84
2021/07/27 04:23:00;;;;;;;10.45;7.28;;;;;;;16.34;100.00;100070.69;5077363;28;20028;-84
2021/07/27 04:25:28;;;;;;;11.40;7.88;;;;;;;16.40;100.00;100073.94;5077379;28;20024;-85
2021/07/27 04:27:54;;;;;;;11.63;7.45;;;;;;;16.37;100.00;100068.84;5077367;28;20028;-84
2021/07/27 04:30:19;;;;;;;10.60;7.10;;;;;;;16.42;100.00;100067.72;5077132;28;20027;-85
2021/07/27 04:32:44;;;;;;;9.18;6.95;;;;;;;16.50;100.00;100070.78;5077447;28;20028;-85
2021/07/27 04:35:10;;;;;;;12.95;8.45;;;;;;;16.48;100.00;100077.03;5077254;28;20028;-85
2021/07/27 04:37:36;;;;;;;11.30;7.80;;;;;;;16.57;100.00;100080.03;5095254;28;20024;-85
2021/07/27 04:40:01;;;;;;;11.70;8.40;;;;;;;16.60;100.00;100073.78;5076985;28;20395;-85
2021/07/27 04:42:27;;;;;;;13.60;8.07;;;;;;;16.63;100.00;100081.50;5078276;28;20024;-84
2021/07/27 04:44:52;;;;;;;11.27;8.73;;;;;;;16.67;100.00;100082.16;5089045;28;20547;-84
2021/07/27 04:47:17;;;;;;;10.73;8.30;;;;;;;16.68;100.00;100084.69;5111795;28;20050;-84
2021/07/27 04:49:45;;;;;;;13.15;9.15;;;;;;;16.78;100.00;100090.38;5091790;28;20080;-84
2021/07/27 04:52:12;;;;;;;14.32;9.00;;;;;;;16.85;100.00;100090.91;5098993;28;20028;-83
2021/07/27 04:54:50;;;;;;;14.07;9.73;;;;;;;16.89;100.00;100090.63;5096498;28;20028;-84
2021/07/27 04:57:15;;;;;;;14.45;9.00;;;;;;;16.88;100.00;100088.13;5112303;28;20046;-84
2021/07/27 04:59:41;;;;;;;12.82;8.80;;;;;;;17.00;100.00;100084.84;5095446;28;20023;-84
2021/07/27 05:02:11;;;;;;;15.48;9.35;;;;;;;17.11;100.00;100102.63;5110709;28;20449;-84
2021/07/27 05:04:36;;;;;;;13.63;9.00;;;;;;;17.10;100.00;100096.53;5115078;28;20032;-84
2021/07/27 05:07:03;;;;;;;12.68;9.63;;;;;;;17.21;100.00;100096.81;5099614;28;20020;-84
2021/07/27 05:09:29;;;;;;;17.67;10.85;;;;;;;17.34;100.00;100097.00;5100041;28;20056;-84
2021/07/27 05:11:58;;;;;;;14.73;10.32;;;;;;;17.28;100.00;100099.13;5099169;28;20020;-84
2021/07/27 05:14:24;;;;;;;16.10;10.18;;;;;;;17.20;100.00;100089.88;5099973;28;20011;-84
2021/07/27 05:16:49;;;;;;;15.15;10.05;;;;;;;17.26;100.00;100100.03;5112803;22;20026;-82
2021/07/27 05:19:14;;;;;;;14.35;10.27;;;;;;;17.28;100.00;100094.72;5096293;28;20396;-81
2021/07/27 05:21:40;;;;;;;13.90;10.60;;;;;;;17.25;100.00;100089.66;5078152;28;20103;-81
2021/07/27 05:24:05;;;;;;;16.67;11.07;;;;;;;17.21;100.00;100094.22;5080037;28;20027;-81
2021/07/27 05:26:31;;;;;;;14.48;10.85;;;;;;;17.20;100.00;100100.34;5083265;28;20028;-83
2021/07/27 05:28:56;;;;;;;19.55;11.63;;;;;;;17.18;100.00;100102.22;5082592;28;20066;-81
2021/07/27 05:31:24;;;;;;;15.80;12.15;;;;;;;17.21;100.00;100099.44;5081279;28;20081;-81
2021/07/27 05:33:49;;;;;;;17.60;12.40;;;;;;;17.33;100.00;100094.47;5081060;28;20035;-82
2021/07/27 05:36:15;;;;;;;16.48;12.10;;;;;;;17.51;100.00;100101.34;5081709;28;20020;-82
2021/07/27 05:38:40;;;;;;;15.40;11.35;;;;;;;17.63;100.00;100098.03;5100570;28;20491;-82
2021/07/27 05:41:05;;;;;;;17.90;12.25;;;;;;;18.00;100.00;100100.44;5100922;28;20031;-82
2021/07/27 05:43:31;;;;;;;15.98;12.30;;;;;;;18.65;100.00;100098.41;5082626;28;20047;-82
2021/07/27 05:45:57;;;;;;;15.02;12.18;;;;;;;18.25;100.00;100097.25;5081927;28;20097;-82
2021/07/27 05:48:22;;;;;;;17.25;12.25;;;;;;;18.25;100.00;100098.09;5081628;28;20024;-82
2021/07/27 05:50:48;;;;;;;14.25;10.23;;;;;;;18.27;100.00;100096.25;5080863;28;20015;-82
2021/07/27 05:53:13;;;;;;;15.23;10.27;;;;;;;19.07;100.00;100094.19;5099391;28;20030;-82
2021/07/27 05:55:38;;;;;;;14.80;10.10;;;;;;;19.90;100.00;100097.75;5080205;28;20130;-83
2021/07/27 05:58:03;;;;;;;14.52;10.13;;;;;;;20.76;100.00;100092.09;5099876;28;20480;-83
2021/07/27 06:00:29;;;;;;;13.82;10.13;;;;;;;20.83;100.00;100095.16;5080850;28;20016;-83
2021/07/27 06:02:54;;;;;;;11.13;9.05;;;;;;;20.80;100.00;100092.75;5101384;28;20023;-82
2021/07/27 06:05:19;;;;;;;15.80;9.07;;;;;;;21.38;100.00;100096.63;5084076;28;20050;-83
2021/07/27 06:07:45;;;;;;;16.17;9.10;;;;;;;20.84;100.00;100084.53;5083038;28;20087;-83
2021/07/27 06:10:11;;;;;;;11.80;9.10;;;;;;;20.59;100.00;100092.41;5081171;28;20020;-83
2021/07/27 06:12:37;;;;;;;12.93;8.75;;;;;;;21.01;100.00;100095.69;5098418;28;20035;-83
2021/07/27 06:15:04;;;;;;;12.07;9.50;;;;;;;20.99;100.00;100095.78;5078996;28;20103;-84
2021/07/27 06:17:30;;;;;;;12.68;8.65;;;;;;;21.26;100.00;100095.66;5078798;28;20028;-83
2021/07/27 06:19:55;;;;;;;14.38;9.43;;;;;;;21.18;100.00;100091.88;5078969;28;20035;-83
2021/07/27 06:22:20;;;;;;;12.77;9.02;;;;;;;21.32;100.00;100094.41;5079878;28;20111;-83
2021/07/27 06:24:46;;;;;;;12.32;9.10;;;;;;;21.52;100.00;100096.50;5080263;28;20028;-83
2021/07/27 06:27:11;;;;;;;13.40;9.32;;;;;;;21.80;100.00;100090.09;5080867;28;20081;-83
2021/07/27 06:29:36;;;;;;;14.40;9.32;;;;;;;21.26;100.00;100094.84;5081541;28;20395;-83
2021/07/27 06:32:02;;;;;;;11.32;8.52;;;;;;;21.98;100.00;100089.69;5083266;28;20016;-82
2021/07/27 06:34:27;;;;;;;12.57;9.23;;;;;;;22.12;100.00;100089.53;5080693;28;20020;-83
2021/07/27 06:36:52;;;;;;;16.07;8.90;;;;;;;22.48;96.72;100093.06;5078021;28;20024;-83
2021/07/27 06:39:18;;;;;;;13.75;8.70;;;;;;;22.59;91.73;100098.34;5077764;28;20273;-83
2021/07/27 06:41:44;;;;;;;12.05;8.68;;;;;;;22.67;93.56;100101.28;5098855;28;20028;-83
2021/07/27 06:44:09;;;;;;;13.02;9.32;;;;;;;22.38;90.40;100098.16;5082664;28;20028;-82
2021/07/27 06:46:34;;;;;;;11.95;8.70;;;;;;;22.63;90.75;100104.25;5095975;28;20024;-82
2021/07/27 06:49:00;;;;;;;19.05;8.77;;;;;;;22.74;94.47;100101.66;5097931;28;20031;-84
2021/07/27 06:51:26;;;;;;;30.05;10.48;;;;;;;23.06;93.08;100101.84;5098130;28;20059;-83
2021/07/27 06:53:51;;;;;;;12.73;8.90;;;;;;;23.45;86.24;100102.31;5096959;28;20581;-83
2021/07/27 06:56:17;;;;;;;13.00;8.73;;;;;;;23.85;86.75;100105.28;5077028;28;20032;-83
2021/07/27 06:58:43;;;;;;;14.10;9.73;;;;;;;23.35;88.10;100101.38;5077053;28;20044;-83
2021/07/27 07:01:10;;;;;;;12.43;8.63;;;;;;;24.50;84.07;100102.66;5093526;28;20457;-83
2021/07/27 07:03:40;;;;;;;12.73;8.45;;;;;;;22.78;92.07;100107.53;5093641;28;20056;-84
2021/07/27 07:06:06;;;;;;;16.23;9.20;;;;;;;22.15;98.37;100102.50;5075372;28;20020;-83
2021/07/27 07:08:31;;;;;;;14.27;10.00;;;;;;;22.21;96.57;100115.28;5093562;28;20027;-84
2021/07/27 07:10:59;;;;;;;15.07;10.65;;;;;;;23.64;88.43;100113.13;5093387;28;20024;-84
2021/07/27 07:13:25;;;;;;;13.80;10.65;;;;;;;23.11;89.78;100109.41;5093770;28;20042;-84
2021/07/27 07:15:51;;;;;;;14.32;10.18;;;;;;;22.92;92.14;100112.63;5076019;28;20031;-84
2021/07/27 07:18:16;;;;;;;14.73;10.55;;;;;;;22.97;86.28;100118.44;5094977;28;20392;-85
2021/07/27 07:20:41;;;;;;;13.38;9.77;;;;;;;23.96;83.34;100115.03;5093926;28;20086;-85
2021/07/27 07:23:07;;;;;;;14.55;10.20;;;;;;;23.87;83.78;100115.78;5075337;28;20024;-85
2021/07/27 07:25:32;;;;;;;13.50;9.27;;;;;;;23.80;85.93;100106.63;5075636;28;20020;-85
2021/07/27 07:27:57;;;;;;;13.43;8.65;;;;;;;22.90;90.04;100110.06;5075415;28;20031;-84
2021/07/27 07:30:25;;;;;;;14.67;9.53;;;;;;;22.22;91.80;100116.97;5076398;28;20012;-85
2021/07/27 07:32:51;;;;;;;13.23;8.88;;;;;;;22.32;95.81;100119.75;5094086;28;20266;-86
2021/07/27 07:35:17;;;;;;;13.23;9.68;;;;;;;21.68;94.78;100111.25;5094197;28;20031;-85
2021/07/27 07:37:42;;;;;;;11.15;8.45;;;;;;;24.25;83.93;100122.38;5079383;28;20091;-85
2021/07/27 07:40:08;;;;;;;13.32;9.50;;;;;;;24.27;79.58;100112.50;5078569;28;20165;-85
2021/07/27 07:42:34;;;;;;;15.10;8.35;;;;;;;23.49;86.22;100118.78;5078590;28;20020;-85
2021/07/27 07:44:59;;;;;;;13.03;8.47;;;;;;;24.29;83.34;100116.72;5079750;28;20130;-85
2021/07/27 07:47:24;;;;;;;12.40;9.53;;;;;;;23.63;86.53;100122.03;5096859;28;20315;-85
2021/07/27 07:49:49;;;;;;;11.38;8.90;;;;;;;22.26;90.74;100117.56;5079153;28;20274;-85
2021/07/27 07:52:15;;;;;;;12.30;8.97;;;;;;;22.03;94.27;100121.91;5079070;28;20498;-84
2021/07/27 07:54:40;;;;;;;11.93;9.45;;;;;;;22.00;91.94;100124.75;5097038;28;20266;-85
2021/07/27 07:57:05;;;;;;;13.80;8.47;;;;;;;22.93;89.60;100128.34;5078682;28;20070;-85
2021/07/27 07:59:30;;;;;;;16.40;9.20;;;;;;;22.79;90.72;100125.94;5097337;28;20343;-85
2021/07/27 08:01:58;;;;;;;19.07;9.40;;;;;;;22.14;93.18;100124.59;5097521;28;20289;-85
2021/07/27 08:04:24;;;;;;;23.17;10.35;;;;;;;21.58;96.55;100125.09;5078983;28;20277;-85
2021/07/27 08:06:50;;;;;;;19.48;9.00;;;;;;;21.34;99.63;100130.28;5096590;28;20035;-85
2021/07/27 08:09:15;;;;;;;13.07;9.27;;;;;;;21.40;100.00;100130.81;5079053;28;20024;-85
2021/07/27 08:11:40;;;;;;;13.18;8.70;;;;;;;22.14;97.32;100131.69;5079061;28;20104;-85
2021/07/27 08:14:06;;;;;;;15.35;9.00;;;;;;;22.21;95.34;100136.44;5079187;28;20023;-85
2021/07/27 08:16:31;;;;;;;13.38;9.30;;;;;;;22.82;93.40;100138.09;5079280;28;20463;-85
2021/07/27 08:18:56;;;;;;;11.82;7.93;;;;;;;23.26;89.17;100126.75;5080693;28;20028;-85
2021/07/27 08:21:24;;;;;;;16.77;8.90;;;;;;;23.02;86.94;100129.47;5080164;28;20028;-86
2021/07/27 08:23:49;;;;;;;13.77;8.63;;;;;;;22.23;93.43;100126.59;5080611;28;20262;-86
2021/07/27 08:26:15;;;;;;;13.30;8.57;;;;;;;22.15;92.58;100128.91;5083573;28;20123;-86
2021/07/27 08:28:42;;;;;;;13.65;9.05;;;;;;;21.82;94.75;100134.84;5096626;28;20055;-86
2021/07/27 08:31:08;;;;;;;11.10;7.22;;;;;;;22.08;96.13;100132.13;5094523;28;20027;-86
2021/07/27 08:33:33;;;;;;;11.02;7.75;;;;;;;21.89;97.47;100135.25;5082817;28;20016;-86
2021/07/27 08:35:59;;;;;;;10.67;7.80;;;;;;;22.33;95.16;100133.84;5083156;28;20024;-86
2021/07/27 08:38:24;;;;;;;10.27;8.17;;;;;;;21.97;96.85;100140.81;5083529;28;20266;-86
2021/07/27 08:40:50;;;;;;;12.97;8.63;;;;;;;21.73;100.00;100138.97;5086410;28;20288;-86
2021/07/27 08:43:19;;;;;;;13.88;8.15;;;;;;;21.80;100.00;100145.53;5102900;28;20258;-85
2021/07/27 08:45:45;;;;;;;11.75;8.23;;;;;;;21.77;99.18;100137.00;5103048;28;20031;-84
2021/07/27 08:48:11;;;;;;;11.15;7.95;;;;;;;21.41;100.00;100145.72;5102288;28;20092;-85
2021/07/27 08:50:38;;;;;;;10.52;6.85;;;;;;;21.78;98.51;100139.50;5102344;28;20036;-88
2021/07/27 08:53:03;;;;;;;11.15;6.57;;;;;;;21.57;100.00;100155.06;5102192;28;20036;-83
2021/07/27 08:55:28;;;;;;;12.40;6.57;;;;;;;21.07;98.17;100154.13;5102761;28;20008;-81
2021/07/27 08:57:58;;;;;;;8.43;5.67;;;;;;;20.88;96.98;100157.19;5120197;28;20035;-82
2021/07/27 09:00:28;;;;;;;10.55;6.50;;;;;;;20.65;98.77;100163.13;5101302;28;20266;-83
2021/07/27 09:02:53;;;;;;;15.32;7.53;;;;;;;20.53;100.00;100163.94;5101263;28;20089;-84
2021/07/27 09:05:19;;;;;;;10.60;6.68;;;;;;;20.36;100.00;100157.97;5100313;28;20067;-85
2021/07/27 09:07:46;;;;;;;9.02;6.15;;;;;;;20.22;100.00;100153.59;5098925;28;20072;-85
2021/07/27 09:10:12;;;;;;;15.32;6.85;;;;;;;20.64;100.00;100161.47;5102547;28;20031;-85
2021/07/27 09:12:37;;;;;;;9.00;6.25;;;;;;;21.21;99.55;100161.06;5077274;28;20032;-84
2021/07/27 09:15:04;;;;;;;14.70;7.15;;;;;;;21.64;95.70;100158.13;5095487;28;20510;-84
2021/07/27 09:17:30;;;;;;;8.60;6.28;;;;;;;23.01;89.40;100151.63;5076542;28;20035;-85
2021/07/27 09:19:56;;;;;;;10.00;6.25;;;;;;;24.96;75.95;100152.66;5094915;28;20020;-85
2021/07/27 09:22:21;;;;;;;15.02;7.25;;;;;;;23.80;81.68;100152.50;5096147;28;20462;-87
2021/07/27 09:24:46;;;;;;;11.30;7.20;;;;;;;22.86;85.05;100163.34;5077138;28;20524;-86
2021/07/27 09:27:13;;;;;;;11.43;7.13;;;;;;;22.22;90.64;100161.88;5077867;28;20258;-86
2021/07/27 09:29:44;;;;;;;11.13;7.28;;;;;;;21.95;92.43;100155.94;5095065;28;20064;-86
2021/07/27 09:32:18;;;;;;;11.63;6.97;;;;;;;22.00;89.12;100161.72;5094896;28;20012;-87
2021/07/27 09:34:43;;;;;;;10.20;6.57;;;;;;;23.87;81.90;100163.44;5094823;28;20077;-86
2021/07/27 09:37:09;;;;;;;10.02;6.97;;;;;;;24.40;74.88;100157.41;5076315;28;20028;-86
2021/07/27 09:39:36;;;;;;;11.98;7.60;;;;;;;23.47;81.67;100158.63;5094929;28;20027;-86
2021/07/27 09:42:09;;;;;;;9.90;6.18;;;;;;;22.47;87.32;100155.63;5076316;28;20081;-85
2021/07/27 09:44:36;;;;;;;8.82;5.32;;;;;;;22.64;87.41;100157.03;5094517;28;20024;-86
2021/07/27 09:47:03;;;;;;;13.20;6.43;;;;;;;22.12;87.83;100157.38;5094259;28;20042;-88
2021/07/27 09:49:29;;;;;;;11.60;7.63;;;;;;;22.58;89.77;100162.78;5076589;28;20020;-86
2021/07/27 09:51:58;;;;;;;12.73;7.00;;;;;;;23.08;88.47;100158.13;5094405;28;20052;-85
2021/07/27 09:54:25;;;;;;;16.27;9.25;;;;;;;23.00;89.12;100155.22;5076147;28;20024;-86
2021/07/27 09:56:51;;;;;;;12.00;8.00;;;;;;;23.74;88.57;100160.06;5094036;28;20077;-86
2021/07/27 09:59:19;;;;;;;16.67;9.38;;;;;;;24.04;83.50;100152.31;5093488;28;20036;-86
2021/07/27 10:01:49;;;;;;;12.63;9.48;;;;;;;23.74;83.53;100165.38;5094004;28;20024;-86
2021/07/27 10:04:22;;;;;;;13.10;9.13;;;;;;;23.58;85.29;100150.66;5076382;28;20468;-86
2021/07/27 10:06:48;;;;;;;12.93;8.88;;;;;;;24.73;80.92;100159.09;5076245;28;20024;-85
2021/07/27 10:09:25;;;;;;;13.27;8.95;;;;;;;26.16;71.08;100150.22;5075937;28;20020;-85
2021/07/27 10:11:50;;;;;;;13.70;8.10;;;;;;;26.08;68.34;100144.78;5076370;28;20020;-86
2021/07/27 10:14:17;;;;;;;14.15;8.80;;;;;;;25.17;71.20;100144.72;5094048;28;20016;-87
2021/07/27 10:16:44;;;;;;;11.88;8.75;;;;;;;25.89;68.15;100154.41;5093875;28;20420;-85
2021/07/27 10:19:22;;;;;;;14.20;8.15;;;;;;;25.79;67.99;100149.97;5076052;28;20115;-86
2021/07/27 10:22:02;;;;;;;12.25;8.10;;;;;;;23.75;75.37;100151.19;5094193;28;20437;-85
2021/07/27 10:24:35;;;;;;;12.18;8.13;;;;;;;24.21;73.90;100150.13;5075941;28;20034;-86
2021/07/27 10:27:09;;;;;;;13.85;8.55;;;;;;;24.33;78.59;100157.91;5075888;28;20419;-85
2021/07/27 10:29:34;;;;;;;15.93;8.85;;;;;;;24.42;74.66;100150.19;5076723;28;20085;-85
2021/07/27 10:32:11;;;;;;;10.57;7.70;;;;;;;24.18;76.78;100163.63;5094068;28;20020;-85
2021/07/27 10:34:40;;;;;;;12.75;7.85;;;;;;;23.81;77.05;100158.63;5093833;28;20726;-85
2021/07/27 10:37:07;;;;;;;12.25;8.30;;;;;;;23.87;75.99;100176.69;5093855;28;20058;-85
2021/07/27 10:39:32;;;;;;;11.30;7.53;;;;;;;23.59;78.91;100162.97;5077491;28;20020;-84
2021/07/27 10:42:07;;;;;;;9.93;7.55;;;;;;;24.16;75.78;100161.09;5077592;28;20081;-84
2021/07/27 10:44:36;;;;;;;10.35;7.10;;;;;;;23.97;76.10;100164.38;5093995;28;20089;-84
2021/07/27 10:47:02;;;;;;;12.45;8.55;;;;;;;23.49;77.46;100164.66;5093834;28;20484;-84
2021/07/27 10:49:27;;;;;;;11.90;8.25;;;;;;;23.31;78.56;100169.59;5092346;28;20047;-84
2021/07/27 10:52:01;;;;;;;11.90;8.10;;;;;;;23.52;78.46;100171.50;5075342;28;20369;-84
2021/07/27 10:54:28;;;;;;;10.70;7.63;;;;;;;23.43;77.89;100173.09;5076297;28;20028;-84
2021/07/27 10:57:01;;;;;;;11.35;6.85;;;;;;;23.47;77.64;100168.38;5093599;28;20024;-84
2021/07/27 10:59:31;;;;;;;11.90;6.83;;;;;;;23.65;75.78;100165.13;5093724;28;20020;-84
2021/07/27 11:01:57;;;;;;;12.27;7.57;;;;;;;24.31;75.21;100161.63;5093791;28;20062;-84
2021/07/27 11:04:30;;;;;;;12.85;8.60;;;;;;;24.46;72.54;100156.91;5093538;28;20157;-84
2021/07/27 11:07:15;;;;;;;12.98;8.10;;;;;;;24.54;71.86;100165.09;5093817;28;20028;-84
2021/07/27 11:09:50;;;;;;;12.90;8.02;;;;;;;24.47;72.62;100159.44;5076476;28;20016;-84
2021/07/27 11:12:33;;;;;;;11.52;8.88;;;;;;;24.24;72.97;100161.31;5096998;28;20114;-85
2021/07/27 11:15:28;;;;;;;11.85;7.90;;;;;;;24.04;72.28;100154.13;5097003;28;20539;-85
2021/07/27 11:17:58;;;;;;;10.98;7.50;;;;;;;24.61;71.86;100160.94;5095538;23;20136;-86
2021/07/27 11:20:30;;;;;;;12.27;7.80;;;;;;;24.89;67.62;100172.72;5097359;28;20020;-86
2021/07/27 11:22:57;;;;;;;11.82;7.45;;;;;;;26.25;62.14;100161.84;5096883;28;20058;-85
2021/07/27 11:25:24;;;;;;;9.88;6.97;;;;;;;25.97;63.55;100156.34;5079421;28;20082;-85
2021/07/27 11:27:51;;;;;;;10.63;6.72;;;;;;;24.99;67.92;100160.38;5078806;28;20024;-85
2021/07/27 11:30:18;;;;;;;9.98;6.43;;;;;;;24.65;70.39;100153.56;5078536;28;20388;-84
2021/07/27 11:32:49;;;;;;;11.32;7.60;;;;;;;24.10;71.04;100157.13;5078942;28;20119;-85
2021/07/27 11:35:16;;;;;;;10.82;7.30;;;;;;;25.02;66.87;100159.25;5096774;28;20551;-85